there are no active watches, warnings or advisories



my webcam  My webcam


visit our other weather sites:

Template documentation
and downloads

And another site




nearby metar reports

   
KAHN - Athens Airport, GA
distance from station: e 35 mi
updated: Oct 14 2019 4:51 pm
clear  
clear  
   wind: wnw 6.9 mph
wind: wnw 6.9 mph
temperature: 80.6°F
dew point: 39.2°F
humidity: 23%
barometer: 30.07 inHg
clouds: Clear
visibility: 10 mi
cloud details: clear ft
KAHN 142051Z 30006KT 10SM CLR 27/04 A3007 RMK AO2 SLP177 T02720039 56007
KBGE - Brainbridge Airport, GA
distance from station: ssw 180 mi
updated: Oct 14 2019 5:15 pm
overcast  
overcast  
   wind: ne 6.9 mph
wind: ne 6.9 mph
temperature: 86°F
heat index: 87.8°F
dew point: 66.2°F
humidity: 52%
barometer: 30.01 inHg
clouds: Overcast
visibility: 10 mi
cloud details: partly cloudy 5000 ft,
overcast 8500 ft
KBGE 142115Z AUTO 04006KT 10SM SCT050 OVC085 30/19 A3001 RMK AO2 T03040191
KSSI - Brunswick Airport, GA
distance from station: se 209 mi
updated: Oct 14 2019 4:53 pm
few clouds  
few clouds  
   wind: ese 6.9 mph
wind: ese 6.9 mph
temperature: 82.4°F
heat index: 86°F
dew point: 69.8°F
humidity: 66%
barometer: 30.03 inHg
clouds: Few Clouds
visibility: 10 mi
cloud details: few clouds 6500 ft
KSSI 142053Z AUTO 11006KT 10SM FEW065 28/21 A3003 RMK AO2 SLP169 T02830211 55007
KCSG - Columbus Airport, GA
distance from station: sw 92 mi
updated: Oct 14 2019 4:51 pm
partly cloudy  
partly cloudy  
   wind: calm
wind: calm
temperature: 78.8°F
dew point: 62.6°F
humidity: 58%
barometer: 30.05 inHg
clouds: Partly Cloudy
visibility: 10 mi
cloud details: few clouds 7500 ft,
partly cloudy 9000 ft
KCSG 142051Z 00000KT 10SM FEW075 SCT090 26/17 A3005 RMK AO2 SLP173 T02610167 56015 $
KGVL - Gainsville Airport, GA
distance from station: n 30 mi
updated: Oct 14 2019 4:53 pm
clear  
clear  
   wind: wsw 6.9 mph
wind: wsw 6.9 mph
temperature: 77°F
dew point: 46.4°F
humidity: 34%
barometer: 30.09 inHg
clouds: Clear
visibility: 10 mi
cloud details: clear ft
KGVL 142053Z AUTO 25006KT 10SM CLR 25/08 A3009 RMK AO2 SLP180 T02500083 56007
KRMG - Rome Airport, GA
distance from station: nw 60 mi
updated: Oct 14 2019 4:53 pm
clear  
clear  
   wind: calm
wind: calm
temperature: 80.6°F
dew point: 44.6°F
humidity: 28%
barometer: 30.06 inHg
clouds: Clear
visibility: 10 mi
cloud details: clear ft
KRMG 142053Z AUTO 00000KT 10SM CLR 27/07 A3006 RMK AO2 SLP172 T02720072 56013
KSAV - Savannah Airport, GA
distance from station: se 183 mi
updated: Oct 14 2019 4:53 pm
partly cloudy  
partly cloudy  
   wind: wnw 9.2 mph
wind: wnw 9.2 mph
temperature: 84.2°F
heat index: 84.2°F
dew point: 62.6°F
humidity: 48%
barometer: 30.03 inHg
clouds: Partly Cloudy
visibility: 10 mi
cloud details: few clouds 5000 ft,
few clouds 6500 ft,
partly cloudy 8000 ft,
partly cloudy 20000 ft
KSAV 142053Z 29008KT 10SM FEW050 FEW065 SCT080 SCT200 29/17 A3003 RMK AO2 SLP167 T02940172 56009 $
KVLD - Valdosta Airport, GA
distance from station: s 185 mi
updated: Oct 14 2019 4:53 pm
partly cloudy  
partly cloudy  
   wind: nne 8.1 mph
wind: nne 8.1 mph
temperature: 87.8°F
heat index: 89.6°F
dew point: 64.4°F
humidity: 46%
barometer: 30.01 inHg
clouds: Partly Cloudy
visibility: 10 mi
cloud details: partly cloudy 6500 ft
KVLD 142053Z 02007KT 10SM SCT065 31/18 A3001 RMK AO2 SLP168 T03110183 56013
KWRB - Warner Robins Airport, GA
distance from station: sse 78 mi
updated: Oct 14 2019 4:56 pm
few clouds  
few clouds  
   wind: ne 3.5 mph
wind: ne 3.5 mph
temperature: 80.6°F
heat index: 82.4°F
dew point: 62.6°F
humidity: 54%
barometer: 30.05 inHg
clouds: Few Clouds
visibility: 10 mi
cloud details: few clouds 12000 ft
KWRB 142056Z 04003KT 10SM FEW120 27/17 A3005 RMK AO2A SLP176 T02720165 55011

script developed by  Saratoga-weather.org adapted for the template by  Weerstation Leuven

equipment we use:

weather-station
Davis VP2 weatherstation

weather-program
WeatherLink

weather-server
My Computer

provider
My provider

Davis VP2 weatherstation

WeatherLink

My Computer

My provider